sensor_id;sensor_type;location;lat;lon;timestamp;pressure;altitude;pressure_sealevel;temperature;humidity
7105;BME280;3594;42.152;24.714;2022-07-29T02:12:38;-24382.78;;;20.34;nan
7105;BME280;3594;42.152;24.714;2022-07-29T02:15:06;-24402.06;;;21.04;nan
7105;BME280;3594;42.152;24.714;2022-07-29T02:17:44;-24397.91;;;20.89;nan
7105;BME280;3594;42.152;24.714;2022-07-29T02:20:11;-24406.50;;;21.21;nan
7105;BME280;3594;42.152;24.714;2022-07-29T02:22:39;-24404.69;;;21.14;nan
7105;BME280;3594;42.152;24.714;2022-07-29T02:25:06;-24393.59;;;20.73;nan
7105;BME280;3594;42.152;24.714;2022-07-29T02:27:34;-24389.28;;;20.58;nan
7105;BME280;3594;42.152;24.714;2022-07-29T02:30:02;-24397.34;;;20.87;nan
7105;BME280;3594;42.152;24.714;2022-07-29T02:32:29;-24391.22;;;20.65;nan
7105;BME280;3594;42.152;24.714;2022-07-29T02:34:56;-24288.06;;;16.90;nan
7105;BME280;3594;42.152;24.714;2022-07-29T02:37:23;-24393.59;;;20.73;nan
7105;BME280;3594;42.152;24.714;2022-07-29T02:39:52;-24388.59;;;20.55;nan
7105;BME280;3594;42.152;24.714;2022-07-29T02:42:21;-24384.56;;;20.41;nan
7105;BME280;3594;42.152;24.714;2022-07-29T02:44:47;-24381.94;;;20.31;nan
7105;BME280;3594;42.152;24.714;2022-07-29T02:47:17;-24380.00;;;20.24;nan
7105;BME280;3594;42.152;24.714;2022-07-29T02:49:57;-24385.97;;;20.46;nan
7105;BME280;3594;42.152;24.714;2022-07-29T02:52:45;-24380.13;;;20.24;nan
7105;BME280;3594;42.152;24.714;2022-07-29T02:55:35;-24379.00;;;20.20;nan
7105;BME280;3594;42.152;24.714;2022-07-29T02:58:05;-24379.28;;;20.21;nan
7105;BME280;3594;42.152;24.714;2022-07-29T03:00:37;-24379.56;;;20.22;nan
7105;BME280;3594;42.152;24.714;2022-07-29T03:03:04;-24380.41;;;20.25;nan
7105;BME280;3594;42.152;24.714;2022-07-29T03:05:32;-24375.25;;;20.07;nan
7105;BME280;3594;42.152;24.714;2022-07-29T03:08:01;-24375.69;;;20.08;nan
7105;BME280;3594;42.152;24.714;2022-07-29T03:10:28;-24374.84;;;20.05;nan
7105;BME280;3594;42.152;24.714;2022-07-29T03:12:55;-24383.31;;;20.36;nan
7105;BME280;3594;42.152;24.714;2022-07-29T03:15:21;-24382.91;;;20.35;nan
7105;BME280;3594;42.152;24.714;2022-07-29T03:17:47;-24305.34;;;17.53;nan
7105;BME280;3594;42.152;24.714;2022-07-29T03:20:13;-24383.75;;;20.38;nan
7105;BME280;3594;42.152;24.714;2022-07-29T03:22:40;-24391.09;;;20.64;nan
7105;BME280;3594;42.152;24.714;2022-07-29T03:25:13;-24402.59;;;21.06;nan
7105;BME280;3594;42.152;24.714;2022-07-29T03:27:39;-24413.69;;;21.47;nan
7105;BME280;3594;42.152;24.714;2022-07-29T03:30:05;-24426.03;;;21.92;nan
7105;BME280;3594;42.152;24.714;2022-07-29T03:32:31;-24422.28;;;21.78;nan
7105;BME280;3594;42.152;24.714;2022-07-29T03:34:57;-24434.88;;;22.24;nan
7105;BME280;3594;42.152;24.714;2022-07-29T03:37:23;-24434.75;;;22.24;nan
7105;BME280;3594;42.152;24.714;2022-07-29T03:39:49;-24448.03;;;22.72;nan
7105;BME280;3594;42.152;24.714;2022-07-29T03:42:19;-24473.88;;;23.67;nan
7105;BME280;3594;42.152;24.714;2022-07-29T03:44:47;-24487.53;;;24.17;nan
7105;BME280;3594;42.152;24.714;2022-07-29T03:47:14;-24493.31;;;24.38;nan
7105;BME280;3594;42.152;24.714;2022-07-29T03:49:41;-24506.13;;;24.85;nan
7105;BME280;3594;42.152;24.714;2022-07-29T03:52:07;-24525.00;;;25.55;nan
7105;BME280;3594;42.152;24.714;2022-07-29T03:54:34;-24536.28;;;25.96;nan
7105;BME280;3594;42.152;24.714;2022-07-29T03:59:26;-24559.75;;;26.82;nan
7105;BME280;3594;42.152;24.714;2022-07-29T04:01:53;-24578.41;;;27.51;nan
7105;BME280;3594;42.152;24.714;2022-07-29T04:04:21;-24588.97;;;27.90;nan
7105;BME280;3594;42.152;24.714;2022-07-29T04:06:47;-24596.63;;;28.19;nan
7105;BME280;3594;42.152;24.714;2022-07-29T04:09:13;-24611.41;;;28.73;nan
7105;BME280;3594;42.152;24.714;2022-07-29T04:11:40;-24625.47;;;29.25;nan
7105;BME280;3594;42.152;24.714;2022-07-29T04:14:06;-24631.50;;;29.48;nan
7105;BME280;3594;42.152;24.714;2022-07-29T04:16:32;-24632.03;;;29.50;nan
7105;BME280;3594;42.152;24.714;2022-07-29T04:18:57;-24647.19;;;30.06;nan
7105;BME280;3594;42.152;24.714;2022-07-29T04:21:23;-24641.84;;;29.86;nan
7105;BME280;3594;42.152;24.714;2022-07-29T04:23:49;-24660.94;;;30.57;nan
7105;BME280;3594;42.152;24.714;2022-07-29T04:26:19;-24658.78;;;30.49;nan
7105;BME280;3594;42.152;24.714;2022-07-29T04:28:45;-24670.47;;;30.92;nan
7105;BME280;3594;42.152;24.714;2022-07-29T04:31:12;-24678.38;;;31.22;nan
7105;BME280;3594;42.152;24.714;2022-07-29T04:33:38;-24675.25;;;31.10;nan
7105;BME280;3594;42.152;24.714;2022-07-29T04:36:03;-24669.78;;;30.90;nan
7105;BME280;3594;42.152;24.714;2022-07-29T04:38:29;-24676.59;;;31.15;nan
7105;BME280;3594;42.152;24.714;2022-07-29T04:40:54;-24676.59;;;31.15;nan
7105;BME280;3594;42.152;24.714;2022-07-29T04:43:20;-24677.16;;;31.17;nan
7105;BME280;3594;42.152;24.714;2022-07-29T04:45:45;-24683.13;;;31.39;nan
7105;BME280;3594;42.152;24.714;2022-07-29T04:48:11;-24671.97;;;30.98;nan
7105;BME280;3594;42.152;24.714;2022-07-29T04:50:39;-24662.44;;;30.62;nan
7105;BME280;3594;42.152;24.714;2022-07-29T04:53:05;-24659.03;;;30.50;nan
7105;BME280;3594;42.152;24.714;2022-07-29T04:55:31;-24641.44;;;29.84;nan
7105;BME280;3594;42.152;24.714;2022-07-29T04:57:56;-24632.19;;;29.50;nan
7105;BME280;3594;42.152;24.714;2022-07-29T05:00:22;-24628.91;;;29.38;nan
7105;BME280;3594;42.152;24.714;2022-07-29T05:02:49;-24627.41;;;29.32;nan
7105;BME280;3594;42.152;24.714;2022-07-29T05:05:14;-24621.38;;;29.10;nan
7105;BME280;3594;42.152;24.714;2022-07-29T05:07:40;-24619.06;;;29.02;nan
7105;BME280;3594;42.152;24.714;2022-07-29T05:10:05;-24613.19;;;28.80;nan
7105;BME280;3594;42.152;24.714;2022-07-29T05:12:31;-24589.38;;;27.92;nan
7105;BME280;3594;42.152;24.714;2022-07-29T05:14:56;-24621.09;;;29.09;nan
7105;BME280;3594;42.152;24.714;2022-07-29T05:17:22;-24636.25;;;29.65;nan
7105;BME280;3594;42.152;24.714;2022-07-29T05:19:47;-24622.19;;;29.13;nan
7105;BME280;3594;42.152;24.714;2022-07-29T05:22:13;-24635.84;;;29.64;nan
7105;BME280;3594;42.152;24.714;2022-07-29T05:24:38;-24625.47;;;29.25;nan
7105;BME280;3594;42.152;24.714;2022-07-29T05:27:04;-24614.69;;;28.85;nan
7105;BME280;3594;42.152;24.714;2022-07-29T05:29:29;-24614.41;;;28.84;nan
7105;BME280;3594;42.152;24.714;2022-07-29T05:31:55;-24602.50;;;28.40;nan
7105;BME280;3594;42.152;24.714;2022-07-29T05:34:20;-24581.44;;;27.62;nan
7105;BME280;3594;42.152;24.714;2022-07-29T05:36:45;-24584.03;;;27.72;nan
7105;BME280;3594;42.152;24.714;2022-07-29T05:39:11;-24584.84;;;27.75;nan
7105;BME280;3594;42.152;24.714;2022-07-29T05:41:38;-24577.59;;;27.48;nan
7105;BME280;3594;42.152;24.714;2022-07-29T05:44:04;-24563.88;;;26.98;nan
7105;BME280;3594;42.152;24.714;2022-07-29T05:46:29;-24553.59;;;26.60;nan
7105;BME280;3594;42.152;24.714;2022-07-29T05:48:55;-24561.00;;;26.87;nan
7105;BME280;3594;42.152;24.714;2022-07-29T05:51:20;-24502.41;;;24.72;nan
7105;BME280;3594;42.152;24.714;2022-07-29T05:53:45;-24552.75;;;26.57;nan
7105;BME280;3594;42.152;24.714;2022-07-29T05:56:11;-24554.00;;;26.61;nan
7105;BME280;3594;42.152;24.714;2022-07-29T05:58:36;-24550.28;;;26.48;nan
7105;BME280;3594;42.152;24.714;2022-07-29T06:01:02;-24553.72;;;26.60;nan
7105;BME280;3594;42.152;24.714;2022-07-29T06:03:28;-24561.69;;;26.90;nan
7105;BME280;3594;42.152;24.714;2022-07-29T06:05:54;-24553.19;;;26.58;nan
7105;BME280;3594;42.152;24.714;2022-07-29T06:08:19;-24542.03;;;26.17;nan
7105;BME280;3594;42.152;24.714;2022-07-29T06:10:45;-24573.34;;;27.33;nan
7105;BME280;3594;42.152;24.714;2022-07-29T06:13:13;-24574.16;;;27.36;nan
7105;BME280;3594;42.152;24.714;2022-07-29T06:15:41;-24576.50;;;27.44;nan
7105;BME280;3594;42.152;24.714;2022-07-29T06:18:07;-24583.47;;;27.70;nan
7105;BME280;3594;42.152;24.714;2022-07-29T06:20:34;-24581.44;;;27.62;nan
7105;BME280;3594;42.152;24.714;2022-07-29T06:23:00;-24578.56;;;27.52;nan
7105;BME280;3594;42.152;24.714;2022-07-29T06:25:25;-24567.31;;;27.10;nan
7105;BME280;3594;42.152;24.714;2022-07-29T06:27:52;-24574.72;;;27.38;nan
7105;BME280;3594;42.152;24.714;2022-07-29T06:30:18;-24571.41;;;27.25;nan
7105;BME280;3594;42.152;24.714;2022-07-29T06:32:43;-24571.41;;;27.25;nan
7105;BME280;3594;42.152;24.714;2022-07-29T06:35:09;-24579.38;;;27.55;nan
7105;BME280;3594;42.152;24.714;2022-07-29T06:37:35;-24584.31;;;27.73;nan
7105;BME280;3594;42.152;24.714;2022-07-29T06:40:00;-24581.44;;;27.62;nan
7105;BME280;3594;42.152;24.714;2022-07-29T06:42:44;-24564.84;;;27.01;nan
7105;BME280;3594;42.152;24.714;2022-07-29T06:45:11;-24555.78;;;26.68;nan
7105;BME280;3594;42.152;24.714;2022-07-29T06:47:36;-24564.97;;;27.02;nan
7105;BME280;3594;42.152;24.714;2022-07-29T06:50:03;-24580.59;;;27.59;nan
7105;BME280;3594;42.152;24.714;2022-07-29T06:52:28;-24586.91;;;27.83;nan
7105;BME280;3594;42.152;24.714;2022-07-29T06:54:54;-24592.25;;;28.02;nan
7105;BME280;3594;42.152;24.714;2022-07-29T06:57:21;-24601.84;;;28.38;nan
7105;BME280;3594;42.152;24.714;2022-07-29T06:59:46;-24603.75;;;28.45;nan
7105;BME280;3594;42.152;24.714;2022-07-29T07:02:13;-24602.94;;;28.42;nan
7105;BME280;3594;42.152;24.714;2022-07-29T07:04:38;-24602.94;;;28.42;nan
7105;BME280;3594;42.152;24.714;2022-07-29T07:07:04;-24601.28;;;28.36;nan
7105;BME280;3594;42.152;24.714;2022-07-29T07:09:29;-24602.66;;;28.41;nan
7105;BME280;3594;42.152;24.714;2022-07-29T07:11:55;-24607.97;;;28.61;nan
7105;BME280;3594;42.152;24.714;2022-07-29T07:14:20;-24613.59;;;28.81;nan
7105;BME280;3594;42.152;24.714;2022-07-29T07:16:45;-24616.88;;;28.93;nan
7105;BME280;3594;42.152;24.714;2022-07-29T07:19:11;-24622.34;;;29.14;nan
7105;BME280;3594;42.152;24.714;2022-07-29T07:21:36;-24622.19;;;29.13;nan
7105;BME280;3594;42.152;24.714;2022-07-29T07:24:02;-24620.69;;;29.08;nan
7105;BME280;3594;42.152;24.714;2022-07-29T07:26:28;-24631.06;;;29.46;nan
7105;BME280;3594;42.152;24.714;2022-07-29T07:28:53;-24625.75;;;29.26;nan
7105;BME280;3594;42.152;24.714;2022-07-29T07:31:19;-24632.19;;;29.50;nan
7105;BME280;3594;42.152;24.714;2022-07-29T07:33:45;-24605.38;;;28.51;nan
7105;BME280;3594;42.152;24.714;2022-07-29T07:36:10;-24621.78;;;29.12;nan
7105;BME280;3594;42.152;24.714;2022-07-29T07:38:35;-24615.38;;;28.88;nan
7105;BME280;3594;42.152;24.714;2022-07-29T07:41:01;-24459.38;;;23.14;nan
7105;BME280;3594;42.152;24.714;2022-07-29T07:43:27;-24610.03;;;28.68;nan
7105;BME280;3594;42.152;24.714;2022-07-29T07:45:52;-24608.41;;;28.62;nan
7105;BME280;3594;42.152;24.714;2022-07-29T07:48:18;-24603.19;;;28.43;nan
7105;BME280;3594;42.152;24.714;2022-07-29T07:50:43;-24606.47;;;28.55;nan
7105;BME280;3594;42.152;24.714;2022-07-29T07:53:09;-24618.25;;;28.98;nan
7105;BME280;3594;42.152;24.714;2022-07-29T07:55:40;-24635.72;;;29.63;nan
7105;BME280;3594;42.152;24.714;2022-07-29T07:58:06;-24634.34;;;29.58;nan
7105;BME280;3594;42.152;24.714;2022-07-29T08:00:31;-24631.50;;;29.48;nan
7105;BME280;3594;42.152;24.714;2022-07-29T08:02:57;-24646.09;;;30.02;nan
7105;BME280;3594;42.152;24.714;2022-07-29T08:05:23;-24643.38;;;29.92;nan
7105;BME280;3594;42.152;24.714;2022-07-29T08:07:48;-24636.94;;;29.68;nan
7105;BME280;3594;42.152;24.714;2022-07-29T08:10:15;-24631.91;;;29.49;nan
7105;BME280;3594;42.152;24.714;2022-07-29T08:13:05;-24625.34;;;29.25;nan
7105;BME280;3594;42.152;24.714;2022-07-29T08:15:31;-24608.13;;;28.61;nan
7105;BME280;3594;42.152;24.714;2022-07-29T08:17:56;-24630.66;;;29.45;nan
7105;BME280;3594;42.152;24.714;2022-07-29T08:20:22;-24635.19;;;29.61;nan
7105;BME280;3594;42.152;24.714;2022-07-29T08:22:47;-24633.81;;;29.56;nan
7105;BME280;3594;42.152;24.714;2022-07-29T08:25:12;-24641.19;;;29.83;nan
7105;BME280;3594;42.152;24.714;2022-07-29T08:27:38;-24611.28;;;28.73;nan
7105;BME280;3594;42.152;24.714;2022-07-29T08:30:04;-24646.38;;;30.03;nan
7105;BME280;3594;42.152;24.714;2022-07-29T08:32:29;-24649.91;;;30.16;nan
7105;BME280;3594;42.152;24.714;2022-07-29T08:34:56;-24633.41;;;29.55;nan
7105;BME280;3594;42.152;24.714;2022-07-29T08:37:22;-24652.91;;;30.27;nan
7105;BME280;3594;42.152;24.714;2022-07-29T08:39:47;-24639.28;;;29.76;nan
7105;BME280;3594;42.152;24.714;2022-07-29T08:42:13;-24643.91;;;29.94;nan
7105;BME280;3594;42.152;24.714;2022-07-29T08:44:39;-24648.81;;;30.12;nan
7105;BME280;3594;42.152;24.714;2022-07-29T08:47:04;-24645.81;;;30.01;nan
7105;BME280;3594;42.152;24.714;2022-07-29T08:49:33;-24636.00;;;29.64;nan
7105;BME280;3594;42.152;24.714;2022-07-29T08:51:59;-24643.91;;;29.94;nan
7105;BME280;3594;42.152;24.714;2022-07-29T08:54:25;-24647.44;;;30.07;nan
7105;BME280;3594;42.152;24.714;2022-07-29T08:56:51;-24649.91;;;30.16;nan
7105;BME280;3594;42.152;24.714;2022-07-29T08:59:19;-24643.91;;;29.94;nan
7105;BME280;3594;42.152;24.714;2022-07-29T09:01:46;-24642.69;;;29.89;nan
7105;BME280;3594;42.152;24.714;2022-07-29T09:04:13;-24656.84;;;30.42;nan
7105;BME280;3594;42.152;24.714;2022-07-29T09:06:43;-24668.31;;;30.84;nan
7105;BME280;3594;42.152;24.714;2022-07-29T09:09:09;-24663.41;;;30.66;nan
7105;BME280;3594;42.152;24.714;2022-07-29T09:11:34;-24662.31;;;30.62;nan
7105;BME280;3594;42.152;24.714;2022-07-29T09:14:00;-24657.13;;;30.43;nan
7105;BME280;3594;42.152;24.714;2022-07-29T09:16:44;-24663.94;;;30.68;nan
7105;BME280;3594;42.152;24.714;2022-07-29T09:19:27;-24673.59;;;31.04;nan
7105;BME280;3594;42.152;24.714;2022-07-29T09:21:54;-24680.00;;;31.28;nan
7105;BME280;3594;42.152;24.714;2022-07-29T09:24:24;-24687.75;;;31.56;nan
7105;BME280;3594;42.152;24.714;2022-07-29T09:26:50;-24697.41;;;31.92;nan
7105;BME280;3594;42.152;24.714;2022-07-29T09:29:20;-24691.97;;;31.72;nan
7105;BME280;3594;42.152;24.714;2022-07-29T09:31:48;-24675.53;;;31.11;nan
7105;BME280;3594;42.152;24.714;2022-07-29T09:34:16;-24666.94;;;30.79;nan
7105;BME280;3594;42.152;24.714;2022-07-29T09:36:47;-24679.72;;;31.27;nan
7105;BME280;3594;42.152;24.714;2022-07-29T09:39:14;-24675.38;;;31.10;nan
7105;BME280;3594;42.152;24.714;2022-07-29T09:41:51;-24679.31;;;31.25;nan
7105;BME280;3594;42.152;24.714;2022-07-29T09:44:21;-24676.59;;;31.15;nan
7105;BME280;3594;42.152;24.714;2022-07-29T09:47:01;-24668.16;;;30.84;nan
7105;BME280;3594;42.152;24.714;2022-07-29T09:49:34;-24685.31;;;31.47;nan
7105;BME280;3594;42.152;24.714;2022-07-29T09:52:08;-24698.50;;;31.96;nan
7105;BME280;3594;42.152;24.714;2022-07-29T09:54:35;-24694.56;;;31.82;nan
7105;BME280;3594;42.152;24.714;2022-07-29T09:57:06;-24696.72;;;31.90;nan
7105;BME280;3594;42.152;24.714;2022-07-29T09:59:32;-24701.34;;;32.07;nan
7105;BME280;3594;42.152;24.714;2022-07-29T10:01:58;-24698.63;;;31.97;nan
7105;BME280;3594;42.152;24.714;2022-07-29T10:04:36;-24702.44;;;32.11;nan
7105;BME280;3594;42.152;24.714;2022-07-29T10:07:02;-24701.88;;;32.09;nan
7105;BME280;3594;42.152;24.714;2022-07-29T10:09:29;-24693.59;;;31.78;nan
7105;BME280;3594;42.152;24.714;2022-07-29T10:12:09;-24696.72;;;31.90;nan
7105;BME280;3594;42.152;24.714;2022-07-29T10:14:35;-24699.97;;;32.02;nan
7105;BME280;3594;42.152;24.714;2022-07-29T10:17:01;-24695.38;;;31.85;nan
7105;BME280;3594;42.152;24.714;2022-07-29T10:19:31;-24694.69;;;31.82;nan
7105;BME280;3594;42.152;24.714;2022-07-29T10:21:58;-24702.44;;;32.11;nan
7105;BME280;3594;42.152;24.714;2022-07-29T10:24:27;-24714.66;;;32.57;nan
7105;BME280;3594;42.152;24.714;2022-07-29T10:26:58;-24719.25;;;32.74;nan
7105;BME280;3594;42.152;24.714;2022-07-29T10:29:25;-24708.69;;;32.34;nan
7105;BME280;3594;42.152;24.714;2022-07-29T10:32:04;-24703.53;;;32.15;nan
7105;BME280;3594;42.152;24.714;2022-07-29T10:40:06;-24712.34;;;32.48;nan
7105;BME280;3594;42.152;24.714;2022-07-29T10:42:55;-24705.00;;;32.21;nan
7105;BME280;3594;42.152;24.714;2022-07-29T10:45:26;-24684.34;;;31.44;nan
7105;BME280;3594;42.152;24.714;2022-07-29T10:48:03;-24697.13;;;31.91;nan
7105;BME280;3594;42.152;24.714;2022-07-29T10:53:24;-24714.78;;;32.57;nan
7105;BME280;3594;42.152;24.714;2022-07-29T10:56:31;-24715.06;;;32.58;nan
7105;BME280;3594;42.152;24.714;2022-07-29T11:01:45;-24722.94;;;32.88;nan
7105;BME280;3594;42.152;24.714;2022-07-29T11:04:11;-24726.03;;;32.99;nan
7105;BME280;3594;42.152;24.714;2022-07-29T11:09:30;-24703.78;;;32.16;nan
7105;BME280;3594;42.152;24.714;2022-07-29T11:17:21;-24699.16;;;31.99;nan
7105;BME280;3594;42.152;24.714;2022-07-29T11:19:46;-24708.41;;;32.33;nan
7105;BME280;3594;42.152;24.714;2022-07-29T11:22:31;-24714.38;;;32.56;nan
7105;BME280;3594;42.152;24.714;2022-07-29T11:25:17;-24722.50;;;32.86;nan
7105;BME280;3594;42.152;24.714;2022-07-29T11:27:44;-24723.59;;;32.90;nan
7105;BME280;3594;42.152;24.714;2022-07-29T11:30:10;-24732.41;;;33.23;nan
7105;BME280;3594;42.152;24.714;2022-07-29T11:32:39;-24736.75;;;33.39;nan
7105;BME280;3594;42.152;24.714;2022-07-29T11:35:15;-24742.03;;;33.59;nan
7105;BME280;3594;42.152;24.714;2022-07-29T11:37:42;-24733.34;;;33.26;nan
7105;BME280;3594;42.152;24.714;2022-07-29T11:40:10;-24714.91;;;32.58;nan
7105;BME280;3594;42.152;24.714;2022-07-29T11:47:34;-24711.25;;;32.44;nan
7105;BME280;3594;42.152;24.714;2022-07-29T11:50:03;-24709.09;;;32.36;nan
7105;BME280;3594;42.152;24.714;2022-07-29T11:52:37;-24700.66;;;32.05;nan
7105;BME280;3594;42.152;24.714;2022-07-29T11:55:09;-24703.13;;;32.14;nan
7105;BME280;3594;42.152;24.714;2022-07-29T11:57:35;-24578.56;;;27.52;nan
7105;BME280;3594;42.152;24.714;2022-07-29T12:00:06;-24713.03;;;32.51;nan
7105;BME280;3594;42.152;24.714;2022-07-29T12:02:41;-24712.19;;;32.48;nan
7105;BME280;3594;42.152;24.714;2022-07-29T12:05:08;-24724.69;;;32.94;nan
7105;BME280;3594;42.152;24.714;2022-07-29T12:07:35;-24718.19;;;32.70;nan
7105;BME280;3594;42.152;24.714;2022-07-29T12:10:03;-24714.91;;;32.58;nan
7105;BME280;3594;42.152;24.714;2022-07-29T12:12:29;-24713.44;;;32.52;nan
7105;BME280;3594;42.152;24.714;2022-07-29T12:14:54;-24705.41;;;32.22;nan
7105;BME280;3594;42.152;24.714;2022-07-29T12:17:31;-24714.38;;;32.56;nan
7105;BME280;3594;42.152;24.714;2022-07-29T12:19:59;-24726.31;;;33.00;nan
7105;BME280;3594;42.152;24.714;2022-07-29T12:22:45;-24734.84;;;33.32;nan
7105;BME280;3594;42.152;24.714;2022-07-29T12:25:14;-24731.47;;;33.19;nan
7105;BME280;3594;42.152;24.714;2022-07-29T12:27:41;-24699.72;;;32.01;nan
7105;BME280;3594;42.152;24.714;2022-07-29T12:30:14;-24722.25;;;32.85;nan
7105;BME280;3594;42.152;24.714;2022-07-29T12:32:49;-24722.66;;;32.86;nan
7105;BME280;3594;42.152;24.714;2022-07-29T12:35:16;-24731.72;;;33.20;nan
7105;BME280;3594;42.152;24.714;2022-07-29T12:37:44;-24740.53;;;33.53;nan
7105;BME280;3594;42.152;24.714;2022-07-29T12:40:12;-24741.75;;;33.58;nan
7105;BME280;3594;42.152;24.714;2022-07-29T12:42:39;-24747.72;;;33.80;nan
7105;BME280;3594;42.152;24.714;2022-07-29T12:45:05;-24754.75;;;34.06;nan
7105;BME280;3594;42.152;24.714;2022-07-29T12:47:31;-24752.97;;;34.00;nan
7105;BME280;3594;42.152;24.714;2022-07-29T12:50:11;-24743.09;;;33.63;nan
7105;BME280;3594;42.152;24.714;2022-07-29T12:52:39;-24735.41;;;33.34;nan
7105;BME280;3594;42.152;24.714;2022-07-29T12:55:05;-24739.59;;;33.50;nan
7105;BME280;3594;42.152;24.714;2022-07-29T12:57:31;-24727.66;;;33.05;nan
7105;BME280;3594;42.152;24.714;2022-07-29T13:00:08;-24739.84;;;33.51;nan
7105;BME280;3594;42.152;24.714;2022-07-29T13:02:36;-24742.28;;;33.60;nan
7105;BME280;3594;42.152;24.714;2022-07-29T13:05:03;-24744.06;;;33.66;nan
7105;BME280;3594;42.152;24.714;2022-07-29T13:07:31;-24758.25;;;34.20;nan
7105;BME280;3594;42.152;24.714;2022-07-29T13:10:18;-24756.38;;;34.12;nan
7105;BME280;3594;42.152;24.714;2022-07-29T13:13:08;-24747.31;;;33.79;nan
7105;BME280;3594;42.152;24.714;2022-07-29T13:15:38;-24744.06;;;33.66;nan
7105;BME280;3594;42.152;24.714;2022-07-29T13:18:05;-24745.41;;;33.71;nan
7105;BME280;3594;42.152;24.714;2022-07-29T13:20:50;-24731.72;;;33.20;nan
7105;BME280;3594;42.152;24.714;2022-07-29T13:23:15;-24733.63;;;33.27;nan
7105;BME280;3594;42.152;24.714;2022-07-29T13:25:41;-24723.72;;;32.91;nan
7105;BME280;3594;42.152;24.714;2022-07-29T13:28:06;-24718.03;;;32.69;nan
7105;BME280;3594;42.152;24.714;2022-07-29T13:30:32;-24717.38;;;32.67;nan
7105;BME280;3594;42.152;24.714;2022-07-29T13:32:58;-24721.28;;;32.81;nan
7105;BME280;3594;42.152;24.714;2022-07-29T13:35:23;-24719.53;;;32.75;nan
7105;BME280;3594;42.152;24.714;2022-07-29T13:37:48;-24730.78;;;33.17;nan
7105;BME280;3594;42.152;24.714;2022-07-29T13:40:14;-24735.66;;;33.35;nan
7105;BME280;3594;42.152;24.714;2022-07-29T13:42:41;-24735.94;;;33.36;nan
7105;BME280;3594;42.152;24.714;2022-07-29T13:45:07;-24745.53;;;33.72;nan
7105;BME280;3594;42.152;24.714;2022-07-29T13:47:33;-24747.31;;;33.79;nan
7105;BME280;3594;42.152;24.714;2022-07-29T13:50:00;-24752.44;;;33.98;nan
7105;BME280;3594;42.152;24.714;2022-07-29T13:52:26;-24750.16;;;33.89;nan
7105;BME280;3594;42.152;24.714;2022-07-29T13:54:51;-24754.47;;;34.05;nan
7105;BME280;3594;42.152;24.714;2022-07-29T13:57:17;-24755.97;;;34.11;nan
7105;BME280;3594;42.152;24.714;2022-07-29T13:59:42;-24746.75;;;33.77;nan
7105;BME280;3594;42.152;24.714;2022-07-29T14:02:08;-24742.28;;;33.60;nan
7105;BME280;3594;42.152;24.714;2022-07-29T14:04:34;-24750.16;;;33.89;nan
7105;BME280;3594;42.152;24.714;2022-07-29T14:07:01;-24746.38;;;33.75;nan
7105;BME280;3594;42.152;24.714;2022-07-29T14:09:26;-24738.78;;;33.47;nan
7105;BME280;3594;42.152;24.714;2022-07-29T14:11:52;-24720.75;;;32.79;nan
7105;BME280;3594;42.152;24.714;2022-07-29T14:14:18;-24739.06;;;33.48;nan
7105;BME280;3594;42.152;24.714;2022-07-29T14:16:44;-24748.53;;;33.83;nan
7105;BME280;3594;42.152;24.714;2022-07-29T14:19:10;-24753.66;;;34.02;nan
7105;BME280;3594;42.152;24.714;2022-07-29T14:21:37;-24745.28;;;33.71;nan
7105;BME280;3594;42.152;24.714;2022-07-29T14:24:03;-24755.00;;;34.07;nan
7105;BME280;3594;42.152;24.714;2022-07-29T14:26:29;-24757.44;;;34.16;nan
7105;BME280;3594;42.152;24.714;2022-07-29T14:28:54;-24753.66;;;34.02;nan
7105;BME280;3594;42.152;24.714;2022-07-29T14:31:20;-24753.81;;;34.03;nan
7105;BME280;3594;42.152;24.714;2022-07-29T14:33:45;-24749.34;;;33.86;nan
7105;BME280;3594;42.152;24.714;2022-07-29T14:36:11;-24741.22;;;33.56;nan
7105;BME280;3594;42.152;24.714;2022-07-29T14:38:36;-24751.63;;;33.95;nan
7105;BME280;3594;42.152;24.714;2022-07-29T14:41:03;-24754.47;;;34.05;nan
7105;BME280;3594;42.152;24.714;2022-07-29T14:43:28;-24752.72;;;33.99;nan
7105;BME280;3594;42.152;24.714;2022-07-29T14:45:54;-24749.75;;;33.88;nan
7105;BME280;3594;42.152;24.714;2022-07-29T14:48:19;-24751.78;;;33.95;nan
7105;BME280;3594;42.152;24.714;2022-07-29T14:50:45;-24752.03;;;33.96;nan
7105;BME280;3594;42.152;24.714;2022-07-29T14:53:10;-24755.69;;;34.10;nan
7105;BME280;3594;42.152;24.714;2022-07-29T14:55:38;-24756.78;;;34.14;nan
7105;BME280;3594;42.152;24.714;2022-07-29T14:58:04;-24740.81;;;33.54;nan
7105;BME280;3594;42.152;24.714;2022-07-29T15:00:30;-24736.34;;;33.38;nan
7105;BME280;3594;42.152;24.714;2022-07-29T15:02:58;-24736.34;;;33.38;nan
7105;BME280;3594;42.152;24.714;2022-07-29T15:05:24;-24738.38;;;33.45;nan
7105;BME280;3594;42.152;24.714;2022-07-29T15:07:50;-24745.94;;;33.73;nan
7105;BME280;3594;42.152;24.714;2022-07-29T15:10:15;-24742.56;;;33.61;nan
7105;BME280;3594;42.152;24.714;2022-07-29T15:12:41;-24744.59;;;33.68;nan
7105;BME280;3594;42.152;24.714;2022-07-29T15:15:06;-24739.72;;;33.50;nan
7105;BME280;3594;42.152;24.714;2022-07-29T15:17:32;-24737.41;;;33.42;nan
7105;BME280;3594;42.152;24.714;2022-07-29T15:19:58;-24737.97;;;33.44;nan
7105;BME280;3594;42.152;24.714;2022-07-29T15:22:23;-24739.59;;;33.50;nan
7105;BME280;3594;42.152;24.714;2022-07-29T15:24:49;-24729.28;;;33.11;nan
7105;BME280;3594;42.152;24.714;2022-07-29T15:27:14;-24747.44;;;33.79;nan
7105;BME280;3594;42.152;24.714;2022-07-29T15:29:40;-24750.41;;;33.90;nan
7105;BME280;3594;42.152;24.714;2022-07-29T15:32:06;-24746.91;;;33.77;nan
7105;BME280;3594;42.152;24.714;2022-07-29T15:34:32;-24738.22;;;33.45;nan
7105;BME280;3594;42.152;24.714;2022-07-29T15:36:57;-24739.84;;;33.51;nan
7105;BME280;3594;42.152;24.714;2022-07-29T15:39:22;-24738.91;;;33.47;nan
7105;BME280;3594;42.152;24.714;2022-07-29T15:41:48;-24736.47;;;33.38;nan
7105;BME280;3594;42.152;24.714;2022-07-29T15:44:14;-24737.16;;;33.41;nan
7105;BME280;3594;42.152;24.714;2022-07-29T15:46:39;-24733.50;;;33.27;nan
7105;BME280;3594;42.152;24.714;2022-07-29T15:49:23;-24727.41;;;33.04;nan
7105;BME280;3594;42.152;24.714;2022-07-29T15:51:55;-24726.31;;;33.00;nan
7105;BME280;3594;42.152;24.714;2022-07-29T15:54:20;-24728.22;;;33.07;nan
7105;BME280;3594;42.152;24.714;2022-07-29T15:56:46;-24729.56;;;33.12;nan
7105;BME280;3594;42.152;24.714;2022-07-29T15:59:11;-24730.91;;;33.17;nan
7105;BME280;3594;42.152;24.714;2022-07-29T16:01:37;-24729.84;;;33.13;nan
7105;BME280;3594;42.152;24.714;2022-07-29T16:04:02;-24736.63;;;33.39;nan